Alsen, South Dakota
Current Conditions -  °F | °C
As of 9:15 AM on Thursday 18 Dec 2014 (Local Time) from KYKN Reporting Station
Broken Clouds Broken Clouds  
Wind Chill: -9°   Ceiling: 1500
Heat Index: -5°   Visibility: 10mi
Dew Point: -7°   Wind: 6mph
Humidity: 86%   Direction: 90°E
Pressure: 30.23"   Gusts: NA
Location:  43.1048°N, 96.7944°W
Report Text: KYKN 181515Z AUTO 09005KT 10SM BKN015 M05/M07 A3023 RMK AO1
Loading
Personal Weather Stations






























Interactive Weather Map New forecast layout! Learn more

10-Day Weather Forecast

Advertisements
Track Severe Weather on mobile